Genco Loire — V7GN8 — position and weather

sailwx.info

Track history (hours):
 
Tides and Currents Weather Stations Pressure Air Temp Water Temp Dewpoint Dewpoint Depression Visibility Wind Speed Wind Dir Waves Ship Positions

Genco Loire

Last reported at 2017-Jun-13 21:44 UTC. Time now 2017-Jun-23 02:01 UTC.
Position N 38°56' W 015°25'.
Warning: this ship's position is 9 days out of date.

Length 190 m; draft 11.1 m.

MMSI: 538002760.

Date/timePositionNaut miles runAvg speedWind from/ knotsBaromVisibWave heightAir tempDewpointWater temp
2017-Jun-13 21:44N 38°56' W 015°25'210.2
2017-Jun-13 21:29N 38°55' W 015°22'710.3
2017-Jun-13 20:51N 38°51' W 015°15'410.3
2017-Jun-13 20:30N 38°49' W 015°11'118 8.7
2017-Jun-13 06:58N 37°58' W 012°55'43 9.1
2017-Jun-13 02:18N 37°36' W 012°09'3 8.9
2017-Jun-13 01:59N 37°35' W 012°06'4 8.9
2017-Jun-13 01:30N 37°32' W 012°02'5 8.5
2017-Jun-13 00:59N 37°30' W 011°57'4 8.8
2017-Jun-13 00:30N 37°28' W 011°52'5 9.4
2017-Jun-13 00:01N 37°26' W 011°47'5 9.2
2017-Jun-12 23:31N 37°23' W 011°42'5 9.2
2017-Jun-12 23:01N 37°21' W 011°37'5 9.0
2017-Jun-12 22:30N 37°19' W 011°32'5 9.0
2017-Jun-12 22:00N 37°16' W 011°27'4 8.6
2017-Jun-12 21:31N 37°14' W 011°23'4 8.9
2017-Jun-12 21:00N 37°12' W 011°18'5 9.1
2017-Jun-12 20:30N 37°09' W 011°13'5 9.1
2017-Jun-12 20:00N 37°07' W 011°08'4 8.8
2017-Jun-12 19:30N 37°05' W 011°03'4 8.8
2017-Jun-12 19:01N 37°02' W 010°59'4 8.5
2017-Jun-12 18:30N 37°00' W 010°54'4 8.8
2017-Jun-12 18:01N 36°58' W 010°49'4 8.7
2017-Jun-12 17:31N 36°56' W 010°45'5 9.0
2017-Jun-12 17:00N 36°54' W 010°40'5 9.0
2017-Jun-12 16:30N 36°51' W 010°35'4 9.0
2017-Jun-12 16:00N 36°49' W 010°30'5 9.1
2017-Jun-12 15:31N 36°47' W 010°25'5 9.4
2017-Jun-12 15:00N 36°44' W 010°20'5 9.2
2017-Jun-12 14:31N 36°42' W 010°15'9 9.4
2017-Jun-12 13:30N 36°37' W 010°05'5 9.2
2017-Jun-12 13:00N 36°34' W 010°01'5 9.3
2017-Jun-12 12:30N 36°32' W 009°56'5 9.6
2017-Jun-12 12:01N 36°30' W 009°51'5 9.8
2017-Jun-12 11:30N 36°27' W 009°45'5 9.7
2017-Jun-12 11:00N 36°25' W 009°40'5 9.7
2017-Jun-12 10:30N 36°22' W 009°35'23 9.6
2017-Jun-12 08:03N 36°17' W 009°06'310.0
2017-Jun-12 07:45N 36°17' W 009°02'18 9.8
2017-Jun-12 05:55N 36°14' W 008°40'14310.2
2017-Jun-11 15:52N 35°57' W 005°45'810.4
2017-Jun-11 15:07N 35°58' W 005°35'111.2
2017-Jun-11 15:00N 35°58' W 005°34'9 9.3
2017-Jun-11 14:01N 36°03' W 005°24'4 7.8
2017-Jun-11 13:30N 36°07' W 005°22'0 0.0
2017-Jun-11 09:10N 36°07' W 005°22'0 0.1
2017-Jun-11 08:52N 36°07' W 005°22'0 0.1
2017-Jun-11 08:28N 36°07' W 005°22'0 0.1
2017-Jun-11 07:52N 36°07' W 005°22'0 0.4
2017-Jun-11 07:25N 36°07' W 005°22'0 0.0
2017-Jun-11 06:58N 36°07' W 005°22'0 0.1
2017-Jun-11 06:28N 36°07' W 005°22'0 0.1
2017-Jun-11 05:58N 36°07' W 005°22'0 0.0
2017-Jun-11 05:28N 36°07' W 005°22'0 0.0
2017-Jun-11 04:58N 36°07' W 005°22'0 0.0
2017-Jun-11 03:28N 36°07' W 005°22'0 0.1
2017-Jun-11 02:58N 36°07' W 005°22'0 0.2
2017-Jun-11 02:25N 36°07' W 005°22'0 0.1
2017-Jun-11 01:58N 36°07' W 005°22'0 0.3
2017-Jun-11 01:28N 36°07' W 005°22'0 0.1
2017-Jun-11 00:58N 36°07' W 005°22'0 0.3
2017-Jun-11 00:22N 36°07' W 005°22'0 0.2
2017-Jun-10 23:58N 36°07' W 005°22'0 0.1
2017-Jun-10 23:28N 36°07' W 005°22'0 0.1
2017-Jun-10 21:46N 36°07' W 005°22'0 0.2
2017-Jun-10 21:25N 36°07' W 005°22'0 0.1
2017-Jun-10 20:58N 36°07' W 005°22'0 0.3
2017-Jun-10 20:28N 36°07' W 005°22'0 0.3
2017-Jun-10 19:58N 36°07' W 005°22'0 0.2
2017-Jun-10 19:28N 36°07' W 005°22'0 0.0
2017-Jun-10 17:49N 36°07' W 005°22'0 0.0
2017-Jun-10 17:28N 36°07' W 005°22'0 0.0
2017-Jun-10 16:55N 36°07' W 005°22'0 0.0
2017-Jun-10 16:28N 36°07' W 005°22'0 0.0
2017-Jun-10 15:55N 36°07' W 005°22'0 0.0
2017-Jun-10 15:28N 36°07' W 005°22'0 0.0
2017-Jun-10 14:58N 36°07' W 005°22'0 0.0
2017-Jun-10 05:34N 36°07' W 005°22'0 0.1
2017-Jun-10 05:28N 36°07' W 005°22'0 0.0
2017-Jun-10 04:55N 36°07' W 005°22'0 0.0
2017-Jun-10 04:28N 36°07' W 005°22'0 0.1
2017-Jun-10 03:48N 36°07' W 005°22'0 0.5
2017-Jun-10 03:28N 36°07' W 005°22'2 5.1
2017-Jun-10 03:00N 36°05' W 005°20'5 9.3
2017-Jun-10 02:30N 36°05' W 005°14'3 6.0
2017-Jun-10 01:56N 36°07' W 005°10'23310.9
2017-Jun-09 04:32N 36°41' W 000°23'811.0
2017-Jun-09 03:48N 36°42' W 000°13'310.6
2017-Jun-09 03:30N 36°43' W 000°10'910.3
2017-Jun-09 02:36N 36°45' E 000°02'310.1
2017-Jun-09 02:20N 36°45' E 000°05'410.1
2017-Jun-09 01:58N 36°46' E 000°10'1010.4
2017-Jun-09 00:59N 36°47' E 000°22'510.4
2017-Jun-09 00:29N 36°48' E 000°29'1410.5
2017-Jun-08 23:10N 36°51' E 000°46'810.5
2017-Jun-08 22:26N 36°52' E 000°55'510.5
2017-Jun-08 21:58N 36°53' E 001°01'610.4
2017-Jun-08 21:24N 36°54' E 001°08'510.6
2017-Jun-08 20:57N 36°55' E 001°14'510.6
2017-Jun-08 20:29N 36°56' E 001°20'510.8
2017-Jun-08 20:00N 36°57' E 001°27'611.1
2017-Jun-08 19:30N 36°58' E 001°34'611.3
2017-Jun-08 18:57N 36°59' E 001°41'611.4
2017-Jun-08 18:26N 36°60' E 001°49'511.2
2017-Jun-08 18:00N 37°01' E 001°55'711.4
2017-Jun-08 17:23N 37°02' E 002°03'1411.3
2017-Jun-08 16:11N 37°04' E 002°20'211.1
2017-Jun-08 16:00N 37°04' E 002°22'611.0
2017-Jun-08 15:29N 37°05' E 002°29'710.9
2017-Jun-08 14:50N 37°07' E 002°38'410.9
2017-Jun-08 14:30N 37°07' E 002°43'1110.8
2017-Jun-08 13:30N 37°09' E 002°56'510.8
2017-Jun-08 13:00N 37°10' E 003°03'1610.9
2017-Jun-08 11:31N 37°13' E 003°23'311.0
2017-Jun-08 11:16N 37°13' E 003°26'311.0
2017-Jun-08 11:00N 37°14' E 003°30'4111.2
2017-Jun-08 07:18N 37°21' E 004°21'39310.1
2017-Jun-06 16:20N 36°56' E 012°33'5711.0
2017-Jun-06 11:08N 36°40' E 013°42'110.7
2017-Jun-06 11:00N 36°40' E 013°44'511.0
2017-Jun-06 10:30N 36°38' E 013°50'611.3
2017-Jun-06 10:00N 36°37' E 013°57'611.2
2017-Jun-06 09:30N 36°35' E 014°03'611.3
2017-Jun-06 09:00N 36°33' E 014°10'611.3
2017-Jun-06 08:30N 36°32' E 014°17'611.3
2017-Jun-06 08:00N 36°30' E 014°24'611.1
2017-Jun-06 07:30N 36°29' E 014°30'510.9
2017-Jun-06 07:00N 36°27' E 014°37'810.7
2017-Jun-06 06:15N 36°26' E 014°47'310.7
2017-Jun-06 06:00N 36°26' E 014°50'510.8
2017-Jun-06 05:30N 36°26' E 014°57'611.1
2017-Jun-06 05:00N 36°26' E 015°03'416 9.9
2017-Jun-04 10:58N 37°20' E 023°39'510.9
2017-Jun-04 10:30N 37°25' E 023°40'611.2
2017-Jun-04 10:00N 37°31' E 023°41'611.3
2017-Jun-04 09:30N 37°36' E 023°42'510.9
2017-Jun-04 09:00N 37°42' E 023°42'511.0
2017-Jun-04 08:30N 37°47' E 023°39'4 8.7
2017-Jun-04 08:00N 37°51' E 023°37'5 9.5
2017-Jun-04 07:31N 37°55' E 023°37'4 8.0
2017-Jun-04 07:00N 37°58' E 023°33'4 8.4
2017-Jun-04 06:30N 38°02' E 023°32'0 0.9
2017-Jun-04 06:00N 38°02' E 023°32'0 0.0
2017-Jun-04 05:30N 38°02' E 023°32'0 0.0
2017-Jun-04 05:00N 38°02' E 023°32'0 0.0
2017-Jun-04 04:30N 38°02' E 023°32'0 0.0
2017-Jun-04 04:00N 38°02' E 023°32'0 0.0
2017-Jun-04 03:30N 38°02' E 023°32'0 0.0
2017-Jun-04 03:00N 38°02' E 023°32'0 0.0
2017-Jun-04 02:30N 38°02' E 023°32'0 0.0
2017-Jun-04 02:00N 38°02' E 023°32'0 0.0
2017-Jun-04 01:30N 38°02' E 023°32'0 0.0
2017-Jun-04 01:00N 38°02' E 023°32'0 0.0
2017-Jun-04 00:30N 38°02' E 023°32'0 0.0
2017-Jun-04 00:00N 38°02' E 023°32'0 0.0
2017-Jun-03 23:30N 38°03' E 023°32'0 0.0
2017-Jun-03 23:00N 38°02' E 023°32'0 0.0
2017-Jun-03 22:30N 38°02' E 023°32'0 0.0
2017-Jun-03 22:00N 38°02' E 023°32'  
Track history (hours):
 
Tides and Currents Weather Stations Pressure Air Temp Water Temp Dewpoint Dewpoint Depression Visibility Wind Speed Wind Dir Waves Ship Positions

Genco Loire

Last reported at 2017-Jun-13 21:44 UTC. Time now 2017-Jun-23 02:01 UTC.
Position N 38°56' W 015°25'.
Warning: this ship's position is 9 days out of date.

Length 190 m; draft 11.1 m.

MMSI: 538002760.

Date/timePositionNaut miles runAvg speedWind from/ knotsBaromVisibWave heightAir tempDewpointWater temp
2017-Jun-13 21:44N 38°56' W 015°25'210.2
2017-Jun-13 21:29N 38°55' W 015°22'710.3
2017-Jun-13 20:51N 38°51' W 015°15'410.3
2017-Jun-13 20:30N 38°49' W 015°11'118 8.7
2017-Jun-13 06:58N 37°58' W 012°55'43 9.1
2017-Jun-13 02:18N 37°36' W 012°09'3 8.9
2017-Jun-13 01:59N 37°35' W 012°06'4 8.9
2017-Jun-13 01:30N 37°32' W 012°02'5 8.5
2017-Jun-13 00:59N 37°30' W 011°57'4 8.8
2017-Jun-13 00:30N 37°28' W 011°52'5 9.4
2017-Jun-13 00:01N 37°26' W 011°47'5 9.2
2017-Jun-12 23:31N 37°23' W 011°42'5 9.2
2017-Jun-12 23:01N 37°21' W 011°37'5 9.0
2017-Jun-12 22:30N 37°19' W 011°32'5 9.0
2017-Jun-12 22:00N 37°16' W 011°27'4 8.6
2017-Jun-12 21:31N 37°14' W 011°23'4 8.9
2017-Jun-12 21:00N 37°12' W 011°18'5 9.1
2017-Jun-12 20:30N 37°09' W 011°13'5 9.1
2017-Jun-12 20:00N 37°07' W 011°08'4 8.8
2017-Jun-12 19:30N 37°05' W 011°03'4 8.8
2017-Jun-12 19:01N 37°02' W 010°59'4 8.5
2017-Jun-12 18:30N 37°00' W 010°54'4 8.8
2017-Jun-12 18:01N 36°58' W 010°49'4 8.7
2017-Jun-12 17:31N 36°56' W 010°45'5 9.0
2017-Jun-12 17:00N 36°54' W 010°40'5 9.0
2017-Jun-12 16:30N 36°51' W 010°35'4 9.0
2017-Jun-12 16:00N 36°49' W 010°30'5 9.1
2017-Jun-12 15:31N 36°47' W 010°25'5 9.4
2017-Jun-12 15:00N 36°44' W 010°20'5 9.2
2017-Jun-12 14:31N 36°42' W 010°15'9 9.4
2017-Jun-12 13:30N 36°37' W 010°05'5 9.2
2017-Jun-12 13:00N 36°34' W 010°01'5 9.3
2017-Jun-12 12:30N 36°32' W 009°56'5 9.6
2017-Jun-12 12:01N 36°30' W 009°51'5 9.8
2017-Jun-12 11:30N 36°27' W 009°45'5 9.7
2017-Jun-12 11:00N 36°25' W 009°40'5 9.7
2017-Jun-12 10:30N 36°22' W 009°35'23 9.6
2017-Jun-12 08:03N 36°17' W 009°06'310.0
2017-Jun-12 07:45N 36°17' W 009°02'18 9.8
2017-Jun-12 05:55N 36°14' W 008°40'14310.2
2017-Jun-11 15:52N 35°57' W 005°45'810.4
2017-Jun-11 15:07N 35°58' W 005°35'111.2
2017-Jun-11 15:00N 35°58' W 005°34'9 9.3
2017-Jun-11 14:01N 36°03' W 005°24'4 7.8
2017-Jun-11 13:30N 36°07' W 005°22'0 0.0
2017-Jun-11 09:10N 36°07' W 005°22'0 0.1
2017-Jun-11 08:52N 36°07' W 005°22'0 0.1
2017-Jun-11 08:28N 36°07' W 005°22'0 0.1
2017-Jun-11 07:52N 36°07' W 005°22'0 0.4
2017-Jun-11 07:25N 36°07' W 005°22'0 0.0
2017-Jun-11 06:58N 36°07' W 005°22'0 0.1
2017-Jun-11 06:28N 36°07' W 005°22'0 0.1
2017-Jun-11 05:58N 36°07' W 005°22'0 0.0
2017-Jun-11 05:28N 36°07' W 005°22'0 0.0
2017-Jun-11 04:58N 36°07' W 005°22'0 0.0
2017-Jun-11 03:28N 36°07' W 005°22'0 0.1
2017-Jun-11 02:58N 36°07' W 005°22'0 0.2
2017-Jun-11 02:25N 36°07' W 005°22'0 0.1
2017-Jun-11 01:58N 36°07' W 005°22'0 0.3
2017-Jun-11 01:28N 36°07' W 005°22'0 0.1
2017-Jun-11 00:58N 36°07' W 005°22'0 0.3
2017-Jun-11 00:22N 36°07' W 005°22'0 0.2
2017-Jun-10 23:58N 36°07' W 005°22'0 0.1
2017-Jun-10 23:28N 36°07' W 005°22'0 0.1
2017-Jun-10 21:46N 36°07' W 005°22'0 0.2
2017-Jun-10 21:25N 36°07' W 005°22'0 0.1
2017-Jun-10 20:58N 36°07' W 005°22'0 0.3
2017-Jun-10 20:28N 36°07' W 005°22'0 0.3
2017-Jun-10 19:58N 36°07' W 005°22'0 0.2
2017-Jun-10 19:28N 36°07' W 005°22'0 0.0
2017-Jun-10 17:49N 36°07' W 005°22'0 0.0
2017-Jun-10 17:28N 36°07' W 005°22'0 0.0
2017-Jun-10 16:55N 36°07' W 005°22'0 0.0
2017-Jun-10 16:28N 36°07' W 005°22'0 0.0
2017-Jun-10 15:55N 36°07' W 005°22'0 0.0
2017-Jun-10 15:28N 36°07' W 005°22'0 0.0
2017-Jun-10 14:58N 36°07' W 005°22'0 0.0
2017-Jun-10 05:34N 36°07' W 005°22'0 0.1
2017-Jun-10 05:28N 36°07' W 005°22'0 0.0
2017-Jun-10 04:55N 36°07' W 005°22'0 0.0
2017-Jun-10 04:28N 36°07' W 005°22'0 0.1
2017-Jun-10 03:48N 36°07' W 005°22'0 0.5
2017-Jun-10 03:28N 36°07' W 005°22'2 5.1
2017-Jun-10 03:00N 36°05' W 005°20'5 9.3
2017-Jun-10 02:30N 36°05' W 005°14'3 6.0
2017-Jun-10 01:56N 36°07' W 005°10'23310.9
2017-Jun-09 04:32N 36°41' W 000°23'811.0
2017-Jun-09 03:48N 36°42' W 000°13'310.6
2017-Jun-09 03:30N 36°43' W 000°10'910.3
2017-Jun-09 02:36N 36°45' E 000°02'310.1
2017-Jun-09 02:20N 36°45' E 000°05'410.1
2017-Jun-09 01:58N 36°46' E 000°10'1010.4
2017-Jun-09 00:59N 36°47' E 000°22'510.4
2017-Jun-09 00:29N 36°48' E 000°29'1410.5
2017-Jun-08 23:10N 36°51' E 000°46'810.5
2017-Jun-08 22:26N 36°52' E 000°55'510.5
2017-Jun-08 21:58N 36°53' E 001°01'610.4
2017-Jun-08 21:24N 36°54' E 001°08'510.6
2017-Jun-08 20:57N 36°55' E 001°14'510.6
2017-Jun-08 20:29N 36°56' E 001°20'510.8
2017-Jun-08 20:00N 36°57' E 001°27'611.1
2017-Jun-08 19:30N 36°58' E 001°34'611.3
2017-Jun-08 18:57N 36°59' E 001°41'611.4
2017-Jun-08 18:26N 36°60' E 001°49'511.2
2017-Jun-08 18:00N 37°01' E 001°55'711.4
2017-Jun-08 17:23N 37°02' E 002°03'1411.3
2017-Jun-08 16:11N 37°04' E 002°20'211.1
2017-Jun-08 16:00N 37°04' E 002°22'611.0
2017-Jun-08 15:29N 37°05' E 002°29'710.9
2017-Jun-08 14:50N 37°07' E 002°38'410.9
2017-Jun-08 14:30N 37°07' E 002°43'1110.8
2017-Jun-08 13:30N 37°09' E 002°56'510.8
2017-Jun-08 13:00N 37°10' E 003°03'1610.9
2017-Jun-08 11:31N 37°13' E 003°23'311.0
2017-Jun-08 11:16N 37°13' E 003°26'311.0
2017-Jun-08 11:00N 37°14' E 003°30'4111.2
2017-Jun-08 07:18N 37°21' E 004°21'39310.1
2017-Jun-06 16:20N 36°56' E 012°33'5711.0
2017-Jun-06 11:08N 36°40' E 013°42'110.7
2017-Jun-06 11:00N 36°40' E 013°44'511.0
2017-Jun-06 10:30N 36°38' E 013°50'611.3
2017-Jun-06 10:00N 36°37' E 013°57'611.2
2017-Jun-06 09:30N 36°35' E 014°03'611.3
2017-Jun-06 09:00N 36°33' E 014°10'611.3
2017-Jun-06 08:30N 36°32' E 014°17'611.3
2017-Jun-06 08:00N 36°30' E 014°24'611.1
2017-Jun-06 07:30N 36°29' E 014°30'510.9
2017-Jun-06 07:00N 36°27' E 014°37'810.7
2017-Jun-06 06:15N 36°26' E 014°47'310.7
2017-Jun-06 06:00N 36°26' E 014°50'510.8
2017-Jun-06 05:30N 36°26' E 014°57'611.1
2017-Jun-06 05:00N 36°26' E 015°03'416 9.9
2017-Jun-04 10:58N 37°20' E 023°39'510.9
2017-Jun-04 10:30N 37°25' E 023°40'611.2
2017-Jun-04 10:00N 37°31' E 023°41'611.3
2017-Jun-04 09:30N 37°36' E 023°42'510.9
2017-Jun-04 09:00N 37°42' E 023°42'511.0
2017-Jun-04 08:30N 37°47' E 023°39'4 8.7
2017-Jun-04 08:00N 37°51' E 023°37'5 9.5
2017-Jun-04 07:31N 37°55' E 023°37'4 8.0
2017-Jun-04 07:00N 37°58' E 023°33'4 8.4
2017-Jun-04 06:30N 38°02' E 023°32'0 0.9
2017-Jun-04 06:00N 38°02' E 023°32'0 0.0
2017-Jun-04 05:30N 38°02' E 023°32'0 0.0
2017-Jun-04 05:00N 38°02' E 023°32'0 0.0
2017-Jun-04 04:30N 38°02' E 023°32'0 0.0
2017-Jun-04 04:00N 38°02' E 023°32'0 0.0
2017-Jun-04 03:30N 38°02' E 023°32'0 0.0
2017-Jun-04 03:00N 38°02' E 023°32'0 0.0
2017-Jun-04 02:30N 38°02' E 023°32'0 0.0
2017-Jun-04 02:00N 38°02' E 023°32'0 0.0
2017-Jun-04 01:30N 38°02' E 023°32'0 0.0
2017-Jun-04 01:00N 38°02' E 023°32'0 0.0
2017-Jun-04 00:30N 38°02' E 023°32'0 0.0
2017-Jun-04 00:00N 38°02' E 023°32'0 0.0
2017-Jun-03 23:30N 38°03' E 023°32'0 0.0
2017-Jun-03 23:00N 38°02' E 023°32'0 0.0
2017-Jun-03 22:30N 38°02' E 023°32'0 0.0
2017-Jun-03 22:00N 38°02' E 023°32'  

Dump ship's entire track history